Time;durP1;ratioP1;P1;durP2;ratioP2;P2;SDS_P1;SDS_P2;PMS_P1;PMS_P2;Temp;Humidity;BMP_temperature;BMP_pressure;BME280_temperature;BME280_humidity;BME280_pressure;Samples;Min_cycle;Max_cycle;Signal;HPM_P1;HPM_P2
2023/06/03 00:02:04;;;;;;;2.20;2.00;;;14.00;64.80;;;;;;5118472;27;21306;-70
2023/06/03 00:04:33;;;;;;;3.43;1.70;;;14.00;65.50;;;;;;5118372;27;20632;-70
2023/06/03 00:07:02;;;;;;;4.20;1.83;;;14.00;66.10;;;;;;5123012;27;20647;-70
2023/06/03 00:09:30;;;;;;;3.03;2.63;;;14.00;65.70;;;;;;5119593;27;20631;-70
2023/06/03 00:11:58;;;;;;;2.50;2.23;;;13.90;66.00;;;;;;5106035;27;21149;-70
2023/06/03 00:14:25;;;;;;;2.83;2.60;;;13.90;66.70;;;;;;5109568;27;20626;-70
2023/06/03 00:16:52;;;;;;;5.00;1.80;;;13.70;65.90;;;;;;5117998;27;20649;-70
2023/06/03 00:19:20;;;;;;;2.40;1.90;;;13.60;67.50;;;;;;5108371;27;20665;-70
2023/06/03 00:21:49;;;;;;;2.80;2.13;;;13.50;67.70;;;;;;5110665;28;20640;-70
2023/06/03 00:24:19;;;;;;;2.47;1.80;;;13.50;67.90;;;;;;5116073;28;20761;-70
2023/06/03 00:26:46;;;;;;;3.80;2.17;;;13.50;68.10;;;;;;5112196;27;20706;-70
2023/06/03 00:29:13;;;;;;;3.20;2.10;;;13.60;68.00;;;;;;5115534;28;20735;-70
2023/06/03 00:31:40;;;;;;;5.37;2.73;;;13.60;68.30;;;;;;5111914;28;20688;-70
2023/06/03 00:34:07;;;;;;;9.63;2.93;;;13.60;68.40;;;;;;5114864;27;20628;-70
2023/06/03 00:36:33;;;;;;;3.67;1.97;;;13.70;67.60;;;;;;5111101;27;21016;-70
2023/06/03 00:39:00;;;;;;;2.83;2.07;;;13.60;67.40;;;;;;5119273;27;20619;-70
2023/06/03 00:41:28;;;;;;;4.43;1.70;;;13.70;66.40;;;;;;5112201;27;20652;-70
2023/06/03 00:44:30;;;;;;;2.80;2.37;;;13.60;67.50;;;;;;5121186;27;20631;-70
2023/06/03 00:46:57;;;;;;;6.63;1.80;;;13.50;67.90;;;;;;5090229;27;20665;-70
2023/06/03 00:49:24;;;;;;;2.10;1.90;;;13.50;68.00;;;;;;5110749;27;20630;-70
2023/06/03 00:51:51;;;;;;;2.27;2.07;;;13.60;68.80;;;;;;5121256;27;20679;-70
2023/06/03 00:54:18;;;;;;;2.10;1.90;;;13.50;68.50;;;;;;5116733;27;20635;-70
2023/06/03 00:56:47;;;;;;;5.87;2.40;;;13.40;68.20;;;;;;5119112;27;20652;-70
2023/06/03 00:59:17;;;;;;;3.30;2.30;;;13.30;69.30;;;;;;5120931;27;20622;-69
2023/06/03 01:01:44;;;;;;;3.63;2.10;;;13.30;69.20;;;;;;5106748;27;21295;-70
2023/06/03 01:04:16;;;;;;;4.03;2.47;;;13.30;69.80;;;;;;5124608;27;20620;-70
2023/06/03 01:06:53;;;;;;;1.73;1.63;;;13.40;69.20;;;;;;5111935;27;20662;-70
2023/06/03 01:09:29;;;;;;;2.77;2.57;;;13.40;68.90;;;;;;5115056;27;20651;-70
2023/06/03 01:12:05;;;;;;;2.20;1.97;;;13.40;69.60;;;;;;5110082;27;20779;-70
2023/06/03 01:14:40;;;;;;;2.23;1.83;;;13.40;69.30;;;;;;5103962;27;20634;-70
2023/06/03 01:17:09;;;;;;;2.23;1.97;;;13.40;69.40;;;;;;5115100;27;20696;-70
2023/06/03 01:19:48;;;;;;;1.87;1.77;;;13.20;70.30;;;;;;5113377;27;20657;-70
2023/06/03 01:22:16;;;;;;;2.80;1.97;;;13.10;69.80;;;;;;5112753;27;20750;-70
2023/06/03 01:24:45;;;;;;;13.10;2.63;;;13.00;70.50;;;;;;5122359;27;20639;-70
2023/06/03 01:27:12;;;;;;;2.57;2.07;;;13.10;70.80;;;;;;5115572;27;20674;-70
2023/06/03 01:29:43;;;;;;;1.87;1.60;;;13.10;70.80;;;;;;5102681;27;20663;-70
2023/06/03 01:32:13;;;;;;;4.30;2.13;;;13.10;71.80;;;;;;5111177;27;20707;-70
2023/06/03 01:34:41;;;;;;;1.70;1.57;;;13.00;71.10;;;;;;5110304;28;20622;-70
2023/06/03 01:37:09;;;;;;;1.63;1.53;;;12.90;71.70;;;;;;5117985;27;20950;-70
2023/06/03 01:39:39;;;;;;;3.90;2.20;;;12.90;71.70;;;;;;5118386;27;21014;-70
2023/06/03 01:42:09;;;;;;;4.83;2.30;;;12.80;71.70;;;;;;5117375;28;20661;-70
2023/06/03 01:44:38;;;;;;;3.63;2.23;;;12.90;71.90;;;;;;5118749;28;20630;-70
2023/06/03 01:47:06;;;;;;;2.70;2.23;;;12.90;72.40;;;;;;5117174;27;20655;-70
2023/06/03 01:49:33;;;;;;;2.10;2.00;;;12.90;72.30;;;;;;5104129;28;20623;-70
2023/06/03 01:52:01;;;;;;;2.83;2.50;;;12.80;72.50;;;;;;5115389;28;20671;-70
2023/06/03 01:54:29;;;;;;;3.00;1.87;;;12.80;71.70;;;;;;5113732;28;20615;-70
2023/06/03 01:56:57;;;;;;;1.90;1.80;;;12.80;72.50;;;;;;5122623;28;20668;-70
2023/06/03 01:59:26;;;;;;;2.57;2.37;;;12.80;71.80;;;;;;5117346;27;20750;-70
2023/06/03 02:01:53;;;;;;;3.27;1.70;;;12.80;72.20;;;;;;5119044;28;21234;-70
2023/06/03 02:04:22;;;;;;;3.93;2.20;;;12.90;72.20;;;;;;5113225;28;20615;-70
2023/06/03 02:06:51;;;;;;;2.60;2.10;;;12.80;72.50;;;;;;5116528;28;20659;-70
2023/06/03 02:09:21;;;;;;;2.07;1.87;;;12.90;72.30;;;;;;5112830;28;20630;-69
2023/06/03 02:11:48;;;;;;;2.37;2.17;;;12.90;71.60;;;;;;5114089;28;20680;-70
2023/06/03 02:14:15;;;;;;;2.33;1.83;;;12.80;72.30;;;;;;5115734;28;20660;-70
2023/06/03 02:16:45;;;;;;;3.47;2.90;;;12.70;73.60;;;;;;5112545;28;20654;-70
2023/06/03 02:19:14;;;;;;;4.10;2.07;;;12.60;73.70;;;;;;5111810;28;21299;-70
2023/06/03 02:21:42;;;;;;;1.53;1.43;;;12.70;72.80;;;;;;5117692;28;20749;-70
2023/06/03 02:24:10;;;;;;;2.80;2.00;;;12.60;73.10;;;;;;5117866;27;20622;-70
2023/06/03 02:26:38;;;;;;;2.20;2.10;;;12.60;73.80;;;;;;5114214;27;20766;-70
2023/06/03 02:29:08;;;;;;;3.07;2.00;;;12.50;74.30;;;;;;5099320;28;20623;-70
2023/06/03 02:31:34;;;;;;;3.63;1.83;;;12.50;73.90;;;;;;5081389;27;1078015;-70
2023/06/03 02:34:03;;;;;;;2.13;1.93;;;12.30;74.30;;;;;;5103431;27;20215;-70
2023/06/03 02:36:31;;;;;;;2.10;1.60;;;12.40;74.90;;;;;;5119094;27;20690;-70
2023/06/03 02:38:58;;;;;;;1.80;1.70;;;12.40;75.60;;;;;;5111814;27;21000;-70
2023/06/03 02:41:26;;;;;;;2.07;1.87;;;12.40;75.70;;;;;;5113792;27;20656;-70
2023/06/03 02:43:53;;;;;;;1.40;1.30;;;12.30;75.20;;;;;;5125079;27;20626;-70
2023/06/03 02:46:20;;;;;;;2.27;2.10;;;12.30;75.50;;;;;;5118021;27;20659;-70
2023/06/03 02:48:47;;;;;;;1.60;1.50;;;12.40;75.90;;;;;;5120404;27;20618;-70
2023/06/03 02:51:18;;;;;;;3.03;1.97;;;12.30;75.70;;;;;;5114279;27;20654;-71
2023/06/03 02:53:45;;;;;;;2.50;1.97;;;12.30;75.90;;;;;;5124676;27;21068;-70
2023/06/03 02:56:12;;;;;;;2.17;1.80;;;12.30;76.10;;;;;;5119704;27;20658;-70
2023/06/03 02:58:40;;;;;;;2.10;1.60;;;12.30;76.10;;;;;;5117657;27;20627;-70
2023/06/03 03:01:07;;;;;;;3.60;2.20;;;12.20;76.30;;;;;;5117535;27;20673;-70
2023/06/03 03:03:36;;;;;;;2.27;2.07;;;12.20;76.30;;;;;;5108745;27;20731;-70
2023/06/03 03:06:03;;;;;;;3.70;2.60;;;12.10;77.50;;;;;;5115778;27;20657;-70
2023/06/03 03:08:33;;;;;;;4.57;2.60;;;12.10;77.20;;;;;;5117148;27;21215;-70
2023/06/03 03:11:00;;;;;;;3.17;2.20;;;12.20;77.50;;;;;;5118571;27;21215;-70
2023/06/03 03:13:28;;;;;;;2.37;1.70;;;12.10;78.30;;;;;;5115779;27;20654;-70
2023/06/03 03:15:55;;;;;;;2.43;1.70;;;12.10;77.80;;;;;;5111390;27;20683;-70
2023/06/03 03:18:22;;;;;;;6.30;2.23;;;12.00;77.90;;;;;;5106571;27;20721;-70
2023/06/03 03:20:51;;;;;;;3.03;1.93;;;12.00;78.20;;;;;;5120434;27;20654;-70
2023/06/03 03:23:18;;;;;;;5.50;1.90;;;12.00;78.50;;;;;;5110069;27;20728;-70
2023/06/03 03:25:47;;;;;;;4.40;1.90;;;12.00;78.20;;;;;;5120963;27;20667;-70
2023/06/03 03:28:15;;;;;;;2.83;2.60;;;12.00;78.90;;;;;;5113764;27;20627;-70
2023/06/03 03:30:42;;;;;;;2.97;1.60;;;11.90;78.90;;;;;;5114461;27;21305;-70
2023/06/03 03:33:09;;;;;;;2.40;1.57;;;11.90;78.80;;;;;;5108693;27;21110;-70
2023/06/03 03:35:40;;;;;;;2.10;1.90;;;11.90;78.20;;;;;;5101100;27;20654;-70
2023/06/03 03:38:08;;;;;;;7.10;2.00;;;11.90;79.10;;;;;;5113345;27;21246;-70
2023/06/03 03:40:38;;;;;;;3.07;2.33;;;11.80;79.40;;;;;;5118143;27;20669;-70
2023/06/03 03:43:13;;;;;;;2.73;2.50;;;11.80;79.80;;;;;;5116533;27;21067;-70
2023/06/03 03:45:40;;;;;;;1.70;1.60;;;11.80;80.20;;;;;;5112778;27;20673;-70
2023/06/03 03:48:09;;;;;;;4.27;1.80;;;11.80;80.20;;;;;;5111827;27;20632;-70
2023/06/03 03:50:46;;;;;;;2.97;2.67;;;11.80;80.90;;;;;;5117067;27;20661;-70
2023/06/03 03:53:15;;;;;;;2.90;2.60;;;11.80;81.00;;;;;;5117513;27;20681;-70
2023/06/03 03:55:43;;;;;;;2.90;2.33;;;11.90;80.90;;;;;;5115225;27;20643;-70
2023/06/03 03:58:40;;;;;;;2.30;2.10;;;11.90;81.10;;;;;;5119490;27;20625;-70
2023/06/03 04:01:12;;;;;;;1.40;1.30;;;11.90;80.50;;;;;;5104015;27;20721;-70
2023/06/03 04:03:40;;;;;;;2.53;1.90;;;12.00;81.00;;;;;;5112549;27;21033;-70
2023/06/03 04:06:08;;;;;;;3.40;2.40;;;12.10;79.80;;;;;;5109115;27;20666;-70
2023/06/03 04:08:40;;;;;;;3.27;2.43;;;12.10;80.00;;;;;;5109504;27;20625;-70
2023/06/03 04:11:09;;;;;;;4.30;2.33;;;12.00;79.80;;;;;;5115535;27;20646;-70
2023/06/03 04:13:41;;;;;;;3.20;2.03;;;12.10;79.50;;;;;;5109603;27;20663;-70
2023/06/03 04:16:10;;;;;;;1.83;1.73;;;12.10;81.10;;;;;;5116218;27;21270;-70
2023/06/03 04:18:40;;;;;;;3.07;2.40;;;12.00;81.20;;;;;;5108953;28;20625;-70
2023/06/03 04:21:07;;;;;;;2.87;2.67;;;12.00;82.20;;;;;;5116988;27;20647;-70
2023/06/03 04:23:34;;;;;;;3.10;1.83;;;12.00;82.70;;;;;;5115359;27;21217;-70
2023/06/03 04:26:02;;;;;;;7.23;3.87;;;12.20;82.20;;;;;;5112811;27;20654;-70
2023/06/03 04:28:29;;;;;;;4.10;1.90;;;12.20;82.30;;;;;;5118209;27;20637;-70
2023/06/03 04:30:57;;;;;;;2.20;1.83;;;12.20;81.70;;;;;;5106956;28;21201;-70
2023/06/03 04:33:24;;;;;;;2.60;2.40;;;12.20;82.10;;;;;;5102261;28;21028;-70
2023/06/03 04:35:51;;;;;;;3.83;2.30;;;12.20;82.60;;;;;;5097485;28;20648;-70
2023/06/03 04:38:18;;;;;;;3.40;2.63;;;12.10;81.70;;;;;;5103519;28;21195;-70
2023/06/03 04:40:46;;;;;;;2.43;2.20;;;12.10;82.10;;;;;;5117466;28;20660;-70
2023/06/03 04:43:14;;;;;;;3.73;2.20;;;12.20;81.80;;;;;;5111385;28;20618;-70
2023/06/03 04:45:44;;;;;;;2.20;2.00;;;12.30;82.10;;;;;;5113861;28;21290;-70
2023/06/03 04:48:13;;;;;;;1.90;1.80;;;12.40;81.70;;;;;;5109693;27;20629;-70
2023/06/03 04:50:44;;;;;;;4.30;2.40;;;12.40;81.10;;;;;;5114693;28;20647;-70
2023/06/03 04:53:11;;;;;;;2.30;2.10;;;12.50;80.90;;;;;;5108884;27;21201;-70
2023/06/03 04:55:42;;;;;;;2.53;2.00;;;12.50;81.70;;;;;;5111162;28;20689;-70
2023/06/03 04:58:09;;;;;;;3.73;2.57;;;12.60;81.70;;;;;;5115934;28;20635;-70
2023/06/03 05:00:36;;;;;;;2.03;1.87;;;12.70;81.40;;;;;;5103260;28;20651;-70
2023/06/03 05:03:08;;;;;;;2.77;2.57;;;12.80;80.60;;;;;;5103688;28;21295;-70
2023/06/03 05:05:41;;;;;;;3.00;2.70;;;12.80;80.80;;;;;;5113588;28;20657;-70
2023/06/03 05:08:08;;;;;;;1.93;1.73;;;12.80;80.60;;;;;;5124706;28;20657;-70
2023/06/03 05:10:35;;;;;;;2.93;1.80;;;12.90;80.90;;;;;;5110615;28;20665;-70
2023/06/03 05:13:02;;;;;;;1.97;1.67;;;13.00;80.60;;;;;;5122982;27;20657;-70
2023/06/03 05:15:29;;;;;;;3.50;2.03;;;13.20;79.80;;;;;;5115229;28;20762;-70
2023/06/03 05:17:56;;;;;;;2.20;2.00;;;13.30;79.40;;;;;;5114464;28;20719;-69
2023/06/03 05:20:24;;;;;;;5.10;2.80;;;13.40;80.10;;;;;;5105097;28;20623;-69
2023/06/03 05:22:52;;;;;;;3.33;2.53;;;13.50;78.90;;;;;;5118678;27;20627;-69
2023/06/03 05:25:19;;;;;;;2.10;1.90;;;13.70;78.40;;;;;;5118374;27;20629;-69
2023/06/03 05:27:46;;;;;;;3.50;2.60;;;13.70;78.20;;;;;;5119813;27;20625;-69
2023/06/03 05:30:14;;;;;;;3.23;2.37;;;13.80;78.00;;;;;;5112439;27;20738;-69
2023/06/03 05:32:41;;;;;;;5.40;2.30;;;13.90;78.00;;;;;;5118849;27;20659;-69
2023/06/03 05:35:08;;;;;;;2.50;2.30;;;13.90;77.40;;;;;;5121059;27;20715;-70
2023/06/03 05:37:35;;;;;;;2.50;2.30;;;14.00;77.10;;;;;;5113630;27;20994;-70
2023/06/03 05:40:04;;;;;;;8.17;3.10;;;14.10;76.60;;;;;;5115231;27;21195;-69
2023/06/03 05:42:31;;;;;;;3.90;2.63;;;14.10;77.20;;;;;;5108017;27;20664;-69
2023/06/03 05:44:58;;;;;;;2.40;2.17;;;14.10;76.80;;;;;;5107796;27;21175;-70
2023/06/03 05:47:25;;;;;;;2.60;2.40;;;14.50;73.80;;;;;;5103456;27;20649;-70
2023/06/03 05:49:51;;;;;;;3.90;2.20;;;14.70;73.40;;;;;;5099336;27;20638;-70
2023/06/03 05:52:18;;;;;;;2.30;2.00;;;14.90;74.00;;;;;;5102711;27;20658;-70
2023/06/03 05:54:45;;;;;;;1.87;1.67;;;14.90;72.20;;;;;;5102543;28;20675;-70
2023/06/03 05:57:13;;;;;;;3.03;2.30;;;15.20;73.00;;;;;;5108165;27;20647;-70
2023/06/03 05:59:40;;;;;;;3.40;3.10;;;15.30;72.10;;;;;;5105794;27;20609;-70
2023/06/03 06:02:07;;;;;;;2.90;2.67;;;15.40;71.50;;;;;;5109002;27;20640;-70
2023/06/03 06:04:34;;;;;;;2.67;2.47;;;15.50;70.40;;;;;;5106372;27;21181;-70
2023/06/03 06:07:00;;;;;;;2.63;2.10;;;15.50;70.20;;;;;;5103635;27;20660;-70
2023/06/03 06:09:27;;;;;;;3.07;2.53;;;15.50;70.10;;;;;;5102429;27;20633;-70
2023/06/03 06:11:54;;;;;;;2.20;2.00;;;15.70;70.00;;;;;;5101443;27;20660;-70
2023/06/03 06:14:22;;;;;;;3.87;2.30;;;15.90;68.60;;;;;;5102459;27;20656;-70
2023/06/03 06:16:52;;;;;;;2.40;2.10;;;16.00;68.90;;;;;;5104959;27;20653;-70
2023/06/03 06:19:23;;;;;;;3.30;2.50;;;16.10;67.70;;;;;;5111291;27;20700;-70
2023/06/03 06:21:52;;;;;;;3.67;2.37;;;16.10;67.20;;;;;;5104622;27;20646;-70
2023/06/03 06:24:22;;;;;;;3.63;2.47;;;16.20;67.60;;;;;;5105091;27;20631;-70
2023/06/03 06:26:49;;;;;;;2.20;1.97;;;16.20;67.20;;;;;;5104642;27;20655;-70
2023/06/03 06:29:16;;;;;;;2.77;2.27;;;16.40;67.90;;;;;;5101769;27;20674;-71
2023/06/03 06:31:45;;;;;;;5.90;3.00;;;16.40;67.70;;;;;;5121758;27;20660;-71
2023/06/03 06:34:16;;;;;;;2.37;2.10;;;16.50;64.50;;;;;;5120095;27;20671;-73
2023/06/03 06:36:49;;;;;;;3.20;2.00;;;16.40;65.20;;;;;;5109665;27;20957;-73
2023/06/03 06:39:47;;;;;;;2.57;1.93;;;16.40;67.40;;;;;;5122977;27;21231;-73
2023/06/03 06:42:18;;;;;;;2.10;1.73;;;16.40;67.00;;;;;;5115094;27;20652;-73
2023/06/03 06:44:46;;;;;;;4.53;2.53;;;16.40;66.70;;;;;;5108710;27;20985;-73
2023/06/03 06:47:20;;;;;;;2.20;2.00;;;16.60;66.90;;;;;;5121744;27;20656;-73
2023/06/03 06:49:47;;;;;;;2.40;2.20;;;16.90;65.50;;;;;;5115548;27;20653;-73
2023/06/03 06:52:15;;;;;;;2.77;2.57;;;16.90;65.90;;;;;;5121025;27;20658;-73
2023/06/03 06:54:42;;;;;;;3.20;2.40;;;17.10;64.30;;;;;;5118268;27;20668;-73
2023/06/03 06:57:10;;;;;;;4.33;2.23;;;17.30;64.40;;;;;;5118459;27;21227;-73
2023/06/03 06:59:36;;;;;;;2.07;1.73;;;17.10;63.80;;;;;;5097622;28;20750;-73
2023/06/03 07:02:03;;;;;;;5.23;2.13;;;17.30;64.60;;;;;;5116646;27;20646;-73
2023/06/03 07:04:32;;;;;;;4.10;2.27;;;17.30;64.10;;;;;;5116501;27;20633;-73
2023/06/03 07:06:58;;;;;;;2.67;2.40;;;17.40;63.80;;;;;;5108205;27;20656;-73
2023/06/03 07:09:25;;;;;;;3.70;2.10;;;17.40;63.70;;;;;;5116257;27;20630;-73
2023/06/03 07:11:52;;;;;;;3.67;2.37;;;17.50;62.60;;;;;;5118468;27;20660;-74
2023/06/03 07:14:19;;;;;;;3.40;3.03;;;17.60;63.30;;;;;;5116815;27;20681;-73
2023/06/03 07:16:48;;;;;;;2.37;2.00;;;17.60;63.00;;;;;;5111058;27;20666;-73
2023/06/03 07:19:15;;;;;;;3.30;3.00;;;17.60;63.00;;;;;;5117913;27;20981;-73
2023/06/03 07:21:43;;;;;;;3.10;2.30;;;17.70;61.90;;;;;;5117617;27;20669;-73
2023/06/03 07:24:11;;;;;;;3.40;2.67;;;17.70;61.80;;;;;;5121200;27;20625;-73
2023/06/03 07:26:40;;;;;;;3.33;2.00;;;17.70;63.40;;;;;;5116241;27;21085;-73
2023/06/03 07:29:07;;;;;;;4.07;2.90;;;17.90;63.00;;;;;;5114096;27;20630;-73
2023/06/03 07:31:36;;;;;;;2.47;2.27;;;18.10;62.50;;;;;;5116954;27;20662;-73
2023/06/03 07:34:04;;;;;;;1.80;1.70;;;18.20;61.10;;;;;;5118994;27;21006;-72
2023/06/03 07:36:31;;;;;;;2.00;1.80;;;18.10;61.60;;;;;;5110144;27;20694;-73
2023/06/03 07:39:04;;;;;;;2.87;2.57;;;18.00;63.40;;;;;;5116520;27;20626;-73
2023/06/03 07:41:40;;;;;;;2.53;2.33;;;18.20;64.10;;;;;;5117985;27;20991;-73
2023/06/03 07:44:08;;;;;;;4.07;3.20;;;18.00;63.00;;;;;;5099576;27;20741;-72
2023/06/03 07:46:41;;;;;;;2.97;2.77;;;18.30;62.90;;;;;;5105668;27;20222;-72
2023/06/03 07:49:10;;;;;;;5.57;3.50;;;18.50;60.70;;;;;;5105979;27;20623;-72
2023/06/03 07:51:41;;;;;;;2.10;1.90;;;18.60;60.50;;;;;;5119056;27;20650;-72
2023/06/03 07:54:10;;;;;;;3.07;2.77;;;18.70;61.50;;;;;;5098716;27;20656;-72
2023/06/03 07:56:37;;;;;;;3.00;2.40;;;18.80;62.50;;;;;;5119031;27;20646;-72
2023/06/03 07:59:06;;;;;;;2.80;2.60;;;18.80;61.60;;;;;;5109877;27;21204;-72
2023/06/03 08:01:35;;;;;;;3.40;3.10;;;19.20;60.40;;;;;;5117161;27;20735;-72
2023/06/03 08:04:04;;;;;;;2.70;2.50;;;19.20;59.40;;;;;;5112255;27;20660;-72
2023/06/03 08:06:32;;;;;;;2.67;2.40;;;19.20;59.60;;;;;;5119879;27;20658;-72
2023/06/03 08:09:00;;;;;;;5.43;3.07;;;19.30;61.20;;;;;;5114754;27;21049;-72
2023/06/03 08:11:28;;;;;;;2.90;2.70;;;19.30;61.10;;;;;;5118377;27;21004;-72
2023/06/03 08:13:56;;;;;;;2.40;2.20;;;19.40;59.80;;;;;;5109226;27;20672;-72
2023/06/03 08:16:23;;;;;;;3.27;2.50;;;19.50;61.00;;;;;;5117925;27;20719;-72
2023/06/03 08:18:54;;;;;;;2.97;2.20;;;19.70;59.70;;;;;;5104970;27;20629;-72
2023/06/03 08:21:27;;;;;;;2.67;2.37;;;19.80;60.10;;;;;;5120749;27;20748;-72
2023/06/03 08:23:54;;;;;;;3.37;2.80;;;19.90;58.70;;;;;;5114930;27;20617;-72
2023/06/03 08:26:21;;;;;;;2.90;2.70;;;20.00;59.60;;;;;;5111746;28;20648;-73
2023/06/03 08:28:49;;;;;;;3.20;2.80;;;20.10;58.70;;;;;;5112803;28;20624;-72
2023/06/03 08:31:16;;;;;;;3.03;2.80;;;20.20;58.30;;;;;;5114548;28;20675;-72
2023/06/03 08:33:42;;;;;;;2.97;2.70;;;19.90;58.90;;;;;;5117238;28;20661;-72
2023/06/03 08:36:09;;;;;;;3.30;3.00;;;19.90;59.60;;;;;;5116121;27;20658;-72
2023/06/03 08:38:36;;;;;;;3.03;2.73;;;20.30;59.10;;;;;;5115882;28;20620;-72
2023/06/03 08:41:03;;;;;;;4.00;3.10;;;20.60;58.60;;;;;;5104831;28;20658;-72
2023/06/03 08:43:39;;;;;;;4.27;3.10;;;20.40;59.10;;;;;;5116680;28;20670;-72
2023/06/03 08:46:18;;;;;;;5.50;4.60;;;20.60;58.30;;;;;;5107372;28;20651;-72
2023/06/03 08:48:51;;;;;;;3.53;3.23;;;20.70;59.10;;;;;;5111091;28;20654;-72
2023/06/03 08:51:23;;;;;;;2.87;2.67;;;20.50;59.10;;;;;;5118906;27;20750;-72
2023/06/03 08:53:51;;;;;;;6.97;3.20;;;20.50;60.20;;;;;;5116903;27;20648;-73
2023/06/03 08:56:20;;;;;;;4.10;3.37;;;20.50;59.30;;;;;;5118131;28;20658;-72
2023/06/03 08:58:49;;;;;;;3.33;2.57;;;20.80;58.80;;;;;;5117411;27;20628;-72
2023/06/03 09:01:20;;;;;;;3.00;2.70;;;21.20;58.70;;;;;;5114535;27;20655;-72
2023/06/03 09:03:48;;;;;;;2.73;2.30;;;21.20;58.30;;;;;;5120921;27;20631;-72
2023/06/03 09:06:15;;;;;;;3.23;2.27;;;20.70;58.10;;;;;;5118284;27;20741;-72
2023/06/03 09:08:42;;;;;;;2.87;2.67;;;20.50;58.70;;;;;;5118375;27;20680;-72
2023/06/03 09:11:12;;;;;;;3.80;2.70;;;20.70;59.50;;;;;;5121110;27;20666;-72
2023/06/03 09:13:41;;;;;;;3.90;3.00;;;21.10;58.80;;;;;;5116496;27;20619;-71
2023/06/03 09:16:09;;;;;;;3.40;2.70;;;21.30;58.20;;;;;;5120843;27;20656;-72
2023/06/03 09:18:38;;;;;;;4.47;2.80;;;21.00;58.60;;;;;;5120583;27;20626;-72
2023/06/03 09:21:09;;;;;;;3.17;2.50;;;21.00;59.00;;;;;;5110268;27;20654;-72
2023/06/03 09:23:37;;;;;;;4.50;4.20;;;21.20;60.30;;;;;;5118088;27;20646;-72
2023/06/03 09:26:04;;;;;;;3.80;2.40;;;20.70;59.50;;;;;;5117969;27;20643;-72
2023/06/03 09:28:31;;;;;;;3.90;2.93;;;20.60;58.80;;;;;;5111799;27;20624;-72
2023/06/03 09:30:58;;;;;;;3.30;2.43;;;20.70;60.00;;;;;;5115016;27;21320;-72
2023/06/03 09:33:25;;;;;;;2.93;2.73;;;21.10;59.10;;;;;;5121938;27;20620;-72
2023/06/03 09:36:10;;;;;;;3.07;2.87;;;21.30;60.10;;;;;;5118928;27;20672;-72
2023/06/03 09:38:47;;;;;;;3.17;2.87;;;21.10;59.00;;;;;;5122983;27;20964;-72
2023/06/03 09:41:16;;;;;;;3.67;3.37;;;21.30;58.50;;;;;;5115561;27;20648;-72
2023/06/03 09:43:53;;;;;;;5.40;3.93;;;21.50;57.80;;;;;;5121777;27;20626;-72
2023/06/03 09:46:20;;;;;;;3.23;2.97;;;21.80;58.90;;;;;;5122526;27;20665;-72
2023/06/03 09:48:47;;;;;;;5.40;3.27;;;22.10;57.80;;;;;;5118931;27;21022;-72
2023/06/03 09:51:15;;;;;;;3.20;2.90;;;21.90;57.10;;;;;;5112916;27;20651;-72
2023/06/03 09:53:42;;;;;;;4.10;3.50;;;21.90;58.10;;;;;;5111252;27;20620;-72
2023/06/03 09:56:22;;;;;;;4.03;3.23;;;21.70;58.50;;;;;;5120017;27;20643;-72
2023/06/03 09:58:49;;;;;;;2.87;2.67;;;21.90;58.60;;;;;;5120175;27;20616;-72
2023/06/03 10:01:18;;;;;;;7.93;3.43;;;22.30;58.40;;;;;;5117183;27;21178;-72
2023/06/03 10:03:58;;;;;;;3.87;3.57;;;22.60;57.50;;;;;;5102968;27;20767;-72
2023/06/03 10:06:27;;;;;;;3.30;3.00;;;22.80;57.90;;;;;;5116734;27;20647;-72
2023/06/03 10:08:53;;;;;;;3.20;2.90;;;22.70;56.40;;;;;;5121272;27;20615;-72
2023/06/03 10:11:22;;;;;;;5.10;4.60;;;22.70;57.60;;;;;;5121583;27;20751;-72
2023/06/03 10:13:50;;;;;;;4.53;3.70;;;23.10;56.80;;;;;;5122043;27;20651;-72
2023/06/03 10:16:16;;;;;;;3.80;3.47;;;23.20;56.60;;;;;;5111662;27;20654;-72
2023/06/03 10:18:43;;;;;;;3.73;3.40;;;23.30;57.10;;;;;;5108931;27;20629;-72
2023/06/03 10:21:11;;;;;;;4.00;3.20;;;23.40;57.00;;;;;;5113202;27;20714;-72
2023/06/03 10:23:40;;;;;;;3.97;3.60;;;23.60;56.50;;;;;;5113682;27;20623;-73
2023/06/03 10:26:08;;;;;;;3.40;3.07;;;23.70;56.10;;;;;;5116719;27;21329;-72
2023/06/03 10:28:36;;;;;;;4.87;4.47;;;23.70;55.00;;;;;;5118060;27;21180;-73
2023/06/03 10:31:04;;;;;;;3.60;3.30;;;23.80;54.70;;;;;;5121680;27;20670;-72
2023/06/03 10:33:36;;;;;;;7.53;3.50;;;23.80;55.60;;;;;;5112876;27;20635;-73
2023/06/03 10:36:04;;;;;;;5.53;4.00;;;24.00;54.60;;;;;;5122339;27;20667;-72
2023/06/03 10:38:32;;;;;;;3.87;3.57;;;23.80;54.50;;;;;;5120019;27;20691;-72
2023/06/03 10:41:01;;;;;;;3.93;3.53;;;24.00;54.50;;;;;;5115796;27;20655;-72
2023/06/03 10:43:30;;;;;;;3.80;3.50;;;24.00;55.60;;;;;;5113643;27;20631;-72
2023/06/03 10:45:58;;;;;;;4.53;3.20;;;24.10;54.50;;;;;;5117186;27;20857;-73
2023/06/03 10:48:27;;;;;;;3.47;3.17;;;24.40;55.50;;;;;;5122007;27;20628;-73
2023/06/03 10:51:01;;;;;;;4.17;3.77;;;24.60;54.80;;;;;;5108789;27;20644;-73
2023/06/03 10:53:41;;;;;;;4.87;3.00;;;24.60;54.30;;;;;;5107746;27;20628;-73
2023/06/03 10:56:20;;;;;;;3.90;3.60;;;24.70;54.10;;;;;;5105755;27;21171;-72
2023/06/03 10:58:58;;;;;;;5.13;4.20;;;25.00;53.10;;;;;;5117148;27;20624;-72
2023/06/03 11:01:55;;;;;;;3.90;3.57;;;25.10;53.00;;;;;;5121270;27;20654;-73
2023/06/03 11:04:22;;;;;;;3.70;3.17;;;25.30;53.00;;;;;;5116313;27;21274;-72
2023/06/03 11:06:49;;;;;;;4.27;3.83;;;25.30;52.70;;;;;;5123853;27;20655;-73
2023/06/03 11:09:29;;;;;;;4.00;3.60;;;25.40;52.80;;;;;;5108854;27;21190;-72
2023/06/03 11:12:09;;;;;;;3.20;2.70;;;25.50;51.80;;;;;;5108338;27;20750;-73
2023/06/03 11:14:54;;;;;;;4.83;3.47;;;25.50;52.00;;;;;;5121133;27;21087;-73
2023/06/03 11:17:22;;;;;;;5.50;4.23;;;25.80;51.80;;;;;;5102157;27;20762;-73
2023/06/03 11:19:51;;;;;;;4.27;3.87;;;25.90;52.40;;;;;;5115594;27;20626;-73
2023/06/03 11:22:41;;;;;;;5.40;3.87;;;26.20;51.50;;;;;;5105878;27;20634;-73
2023/06/03 11:25:09;;;;;;;4.37;3.10;;;26.40;51.10;;;;;;5110595;27;20651;-73
2023/06/03 11:27:38;;;;;;;3.60;3.30;;;26.50;50.80;;;;;;5113288;27;20667;-73
2023/06/03 11:30:07;;;;;;;4.40;3.80;;;26.70;50.80;;;;;;5117259;27;20625;-73
2023/06/03 11:32:36;;;;;;;4.00;3.60;;;26.90;50.00;;;;;;5115628;27;20638;-72
2023/06/03 11:35:27;;;;;;;4.10;3.70;;;27.20;49.20;;;;;;5119919;27;20665;-72
2023/06/03 11:37:54;;;;;;;4.80;4.20;;;27.50;50.10;;;;;;5108589;27;20618;-72
2023/06/03 11:40:22;;;;;;;4.87;3.50;;;27.60;49.70;;;;;;5113520;27;20627;-72
2023/06/03 11:43:09;;;;;;;4.50;3.80;;;27.70;48.20;;;;;;5122429;27;20627;-72
2023/06/03 11:45:38;;;;;;;4.60;3.90;;;27.80;47.60;;;;;;5116269;27;20803;-72
2023/06/03 11:48:07;;;;;;;3.70;3.40;;;27.50;47.50;;;;;;5116326;27;20283;-72
2023/06/03 11:50:45;;;;;;;6.30;3.50;;;27.60;50.60;;;;;;5113988;27;20754;-72
2023/06/03 11:53:33;;;;;;;4.20;3.50;;;28.00;48.90;;;;;;5120246;27;20611;-72
2023/06/03 11:56:05;;;;;;;3.97;3.57;;;29.10;46.80;;;;;;5106049;27;20679;-70
2023/06/03 11:58:34;;;;;;;3.80;3.13;;;29.70;45.90;;;;;;5119773;27;20825;-69
2023/06/03 12:01:11;;;;;;;3.83;3.53;;;30.10;45.30;;;;;;5114469;27;20682;-70
2023/06/03 12:03:38;;;;;;;3.80;3.50;;;30.50;45.30;;;;;;5118002;27;20663;-71
2023/06/03 12:06:06;;;;;;;3.87;3.43;;;31.40;44.00;;;;;;5117556;27;21263;-72
2023/06/03 12:08:43;;;;;;;4.00;3.60;;;31.80;43.60;;;;;;5113724;27;20616;-71
2023/06/03 12:11:10;;;;;;;3.70;3.40;;;32.40;43.40;;;;;;5119292;27;20711;-71
2023/06/03 12:13:42;;;;;;;3.30;3.10;;;33.10;41.40;;;;;;5119843;27;20627;-71
2023/06/03 12:16:08;;;;;;;3.50;3.20;;;33.50;41.10;;;;;;5110327;27;20738;-71
2023/06/03 12:18:35;;;;;;;3.50;3.20;;;33.20;41.40;;;;;;5112183;27;20630;-71
2023/06/03 12:21:20;;;;;;;4.00;3.67;;;32.90;41.20;;;;;;5108009;27;21263;-71
2023/06/03 12:23:47;;;;;;;3.83;3.53;;;33.20;41.40;;;;;;5109280;27;20627;-71
2023/06/03 12:26:14;;;;;;;3.33;3.10;;;33.70;39.90;;;;;;5107333;28;20652;-71
2023/06/03 12:28:42;;;;;;;3.60;3.30;;;34.30;40.10;;;;;;5110957;27;20629;-71
2023/06/03 12:31:13;;;;;;;3.60;3.30;;;33.60;39.10;;;;;;5116645;27;21022;-71
2023/06/03 12:33:41;;;;;;;3.70;3.40;;;32.30;40.20;;;;;;5105096;27;20623;-71
2023/06/03 12:36:09;;;;;;;4.30;3.93;;;31.10;40.60;;;;;;5109145;27;21071;-71
2023/06/03 12:38:50;;;;;;;4.60;4.20;;;30.30;41.30;;;;;;5123192;27;20624;-73
2023/06/03 12:41:18;;;;;;;4.67;4.27;;;29.40;42.40;;;;;;5108006;27;20714;-71
2023/06/03 12:43:46;;;;;;;4.10;3.80;;;28.70;43.50;;;;;;5116079;27;20635;-71
2023/06/03 12:46:17;;;;;;;3.83;3.53;;;29.10;45.20;;;;;;5120042;27;20669;-71
2023/06/03 12:48:45;;;;;;;3.30;3.10;;;30.40;43.50;;;;;;5113817;27;20639;-70
2023/06/03 12:51:25;;;;;;;3.50;3.20;;;30.70;42.10;;;;;;5118389;27;20654;-71
2023/06/03 12:53:55;;;;;;;3.90;3.37;;;31.50;40.70;;;;;;5119199;27;20612;-71
2023/06/03 12:56:23;;;;;;;3.00;2.70;;;32.00;40.20;;;;;;5118926;27;21028;-71
2023/06/03 12:58:51;;;;;;;3.40;3.10;;;32.20;40.80;;;;;;5115777;27;20613;-71